Time;durP1;ratioP1;P1;durP2;ratioP2;P2;SDS_P1;SDS_P2;PMS_P1;PMS_P2;Temp;Humidity;BMP_temperature;BMP_pressure;BME280_temperature;BME280_humidity;BME280_pressure;Samples;Min_cycle;Max_cycle;Signal;HPM_P1;HPM_P2
2021/05/15 00:00:13;;;;;;;24.55;14.30;;;;;;;7.72;100.00;100691.56;3593985;39;20056;-58
2021/05/15 00:02:39;;;;;;;29.38;15.48;;;;;;;7.78;100.00;100691.06;3597927;39;20278;-58
2021/05/15 00:05:07;;;;;;;27.60;14.38;;;;;;;7.76;100.00;100686.78;3601606;39;20047;-59
2021/05/15 00:07:33;;;;;;;28.03;15.20;;;;;;;7.77;100.00;100684.00;3600157;39;20056;-59
2021/05/15 00:09:59;;;;;;;21.45;13.60;;;;;;;7.71;100.00;100690.72;3598978;39;20059;-58
2021/05/15 00:12:26;;;;;;;23.48;13.65;;;;;;;7.76;100.00;100687.66;3595531;39;20531;-58
2021/05/15 00:14:53;;;;;;;25.70;14.73;;;;;;;7.74;100.00;100688.75;3599496;39;20374;-59
2021/05/15 00:17:19;;;;;;;26.42;14.70;;;;;;;7.88;100.00;100675.13;3600714;39;20069;-59
2021/05/15 00:19:45;;;;;;;23.23;13.93;;;;;;;7.93;100.00;100683.63;3600938;39;20516;-58
2021/05/15 00:22:11;;;;;;;26.92;14.98;;;;;;;7.97;100.00;100669.00;3597661;39;20160;-60
2021/05/15 00:24:37;;;;;;;21.70;13.93;;;;;;;7.99;100.00;100675.09;3601716;39;20060;-60
2021/05/15 00:27:03;;;;;;;24.33;15.10;;;;;;;8.02;100.00;100671.31;3598436;39;20290;-59
2021/05/15 00:29:30;;;;;;;23.10;15.15;;;;;;;8.09;100.00;100666.31;3596374;39;20113;-60
2021/05/15 00:31:56;;;;;;;22.95;14.02;;;;;;;8.10;100.00;100668.88;3601487;39;20032;-59
2021/05/15 00:34:22;;;;;;;29.83;15.80;;;;;;;8.12;100.00;100666.06;3592237;39;20071;-59
2021/05/15 00:36:48;;;;;;;30.00;16.85;;;;;;;8.10;100.00;100676.03;3603260;39;20058;-58
2021/05/15 00:39:14;;;;;;;28.75;17.83;;;;;;;8.19;100.00;100660.06;3601864;39;20051;-58
2021/05/15 00:41:40;;;;;;;28.42;16.85;;;;;;;8.33;100.00;100658.97;3603227;39;20042;-58
2021/05/15 00:44:17;;;;;;;26.45;16.20;;;;;;;8.27;100.00;100662.13;3601912;39;20058;-58
2021/05/15 00:46:45;;;;;;;23.85;14.73;;;;;;;8.25;100.00;100661.41;3603775;39;20330;-58
2021/05/15 00:49:12;;;;;;;26.70;15.80;;;;;;;8.36;100.00;100658.69;3601183;39;20095;-58
2021/05/15 00:51:38;;;;;;;25.00;14.40;;;;;;;8.36;100.00;100664.06;3601052;39;20085;-58
2021/05/15 00:54:04;;;;;;;25.63;14.02;;;;;;;8.20;100.00;100663.59;3599505;39;20059;-58
2021/05/15 00:56:32;;;;;;;23.85;15.05;;;;;;;8.32;100.00;100657.25;3600983;39;20055;-58
2021/05/15 00:58:59;;;;;;;29.42;15.98;;;;;;;8.35;100.00;100656.16;3602054;39;20079;-58
2021/05/15 01:01:25;;;;;;;20.10;14.02;;;;;;;8.44;100.00;100651.84;3600959;39;20052;-58
2021/05/15 01:03:52;;;;;;;22.92;14.80;;;;;;;8.43;100.00;100648.28;3601240;39;20044;-58
2021/05/15 01:06:20;;;;;;;23.20;15.02;;;;;;;8.56;100.00;100653.53;3601287;39;20054;-58
2021/05/15 01:08:46;;;;;;;22.85;14.55;;;;;;;8.57;100.00;100644.50;3604099;39;20298;-59
2021/05/15 01:11:13;;;;;;;25.73;15.15;;;;;;;8.44;100.00;100649.16;3600300;39;20068;-59
2021/05/15 01:13:39;;;;;;;28.95;14.98;;;;;;;8.36;100.00;100639.06;3601566;39;20082;-59
2021/05/15 01:16:06;;;;;;;28.20;15.63;;;;;;;8.37;100.00;100638.09;3603099;39;20038;-59
2021/05/15 01:18:33;;;;;;;22.15;15.20;;;;;;;8.38;100.00;100632.59;3595192;39;20044;-58
2021/05/15 01:21:01;;;;;;;27.75;14.80;;;;;;;8.39;100.00;100626.25;3596316;39;20032;-58
2021/05/15 01:23:27;;;;;;;25.50;15.27;;;;;;;8.48;100.00;100631.84;3594063;39;20054;-58
2021/05/15 01:25:53;;;;;;;26.73;15.23;;;;;;;8.57;100.00;100623.06;3598029;39;20284;-59
2021/05/15 01:28:19;;;;;;;24.63;14.43;;;;;;;8.61;100.00;100616.44;3596743;39;20059;-58
2021/05/15 01:30:45;;;;;;;21.67;14.68;;;;;;;8.51;100.00;100626.22;3595551;39;20039;-58
2021/05/15 01:33:11;;;;;;;22.27;14.25;;;;;;;8.63;100.00;100614.47;3591251;39;20059;-59
2021/05/15 01:35:37;;;;;;;26.63;15.65;;;;;;;8.65;100.00;100617.88;3603160;39;20192;-58
2021/05/15 01:38:03;;;;;;;25.52;15.18;;;;;;;8.73;100.00;100611.84;3603280;39;20314;-58
2021/05/15 01:40:29;;;;;;;27.25;15.70;;;;;;;8.66;100.00;100608.84;3602353;39;20640;-58
2021/05/15 01:42:55;;;;;;;24.08;15.35;;;;;;;8.65;100.00;100615.19;3601397;39;20112;-58
2021/05/15 01:45:21;;;;;;;23.70;15.38;;;;;;;8.78;100.00;100609.66;3602479;39;20491;-59
2021/05/15 01:47:48;;;;;;;27.65;15.75;;;;;;;8.76;100.00;100607.09;3602147;39;20103;-58
2021/05/15 01:50:17;;;;;;;24.63;16.70;;;;;;;8.72;100.00;100607.50;3604065;39;20309;-58
2021/05/15 01:52:43;;;;;;;26.05;17.05;;;;;;;8.74;100.00;100605.50;3601877;39;20317;-58
2021/05/15 01:55:19;;;;;;;29.65;16.42;;;;;;;8.67;100.00;100607.88;3602813;39;20039;-59
2021/05/15 01:57:45;;;;;;;26.42;15.85;;;;;;;8.74;100.00;100606.34;3601939;39;20039;-59
2021/05/15 02:00:12;;;;;;;25.63;16.25;;;;;;;8.59;100.00;100602.31;3603814;39;20031;-59
2021/05/15 02:02:38;;;;;;;28.30;16.52;;;;;;;8.56;100.00;100606.09;3601112;39;20084;-58
2021/05/15 02:05:05;;;;;;;27.90;16.73;;;;;;;8.52;100.00;100599.28;3601011;39;20052;-58
2021/05/15 02:07:31;;;;;;;27.60;17.05;;;;;;;8.59;100.00;100583.53;3603561;39;20132;-58
2021/05/15 02:09:57;;;;;;;23.42;14.70;;;;;;;8.64;100.00;100591.19;3604737;39;20040;-58
2021/05/15 02:12:24;;;;;;;26.63;15.98;;;;;;;8.61;100.00;100592.28;3603450;39;20047;-59
2021/05/15 02:14:50;;;;;;;26.33;16.35;;;;;;;8.63;100.00;100590.34;3603502;39;20051;-58
2021/05/15 02:17:16;;;;;;;25.65;16.13;;;;;;;8.77;100.00;100583.78;3604914;39;20187;-59
2021/05/15 02:19:41;;;;;;;27.65;15.82;;;;;;;8.83;100.00;100590.47;3602546;39;20032;-59
2021/05/15 02:22:07;;;;;;;24.92;15.50;;;;;;;8.68;100.00;100585.41;3604336;39;20370;-59
2021/05/15 02:24:33;;;;;;;26.38;14.90;;;;;;;8.65;100.00;100576.78;3601509;39;20397;-59
2021/05/15 02:26:59;;;;;;;30.30;15.27;;;;;;;8.61;100.00;100586.91;3605427;39;20055;-59
2021/05/15 02:29:26;;;;;;;30.52;16.30;;;;;;;8.68;100.00;100588.09;3601524;39;20144;-58
2021/05/15 02:31:52;;;;;;;26.05;15.70;;;;;;;8.59;100.00;100588.88;3605633;39;20059;-58
2021/05/15 02:34:18;;;;;;;25.10;15.07;;;;;;;8.59;100.00;100586.22;3600421;39;20132;-58
2021/05/15 02:36:44;;;;;;;25.80;14.65;;;;;;;8.57;100.00;100580.13;3604197;39;20052;-59
2021/05/15 02:39:10;;;;;;;20.63;13.25;;;;;;;8.50;100.00;100578.94;3601039;39;20084;-59
2021/05/15 02:41:36;;;;;;;24.25;15.15;;;;;;;8.74;100.00;100576.84;3604252;39;20410;-59
2021/05/15 02:44:03;;;;;;;21.67;13.85;;;;;;;8.90;100.00;100576.38;3599867;39;20051;-59
2021/05/15 02:46:30;;;;;;;24.77;14.93;;;;;;;8.76;100.00;100577.56;3602934;39;20054;-58
2021/05/15 02:48:56;;;;;;;23.25;14.15;;;;;;;8.85;100.00;100572.38;3602387;39;20051;-59
2021/05/15 02:51:22;;;;;;;22.45;14.30;;;;;;;8.92;100.00;100562.81;3605205;39;20040;-58
2021/05/15 02:53:48;;;;;;;23.73;13.98;;;;;;;8.94;100.00;100566.25;3599677;39;20426;-59
2021/05/15 02:56:14;;;;;;;23.52;14.80;;;;;;;8.83;100.00;100559.09;3603091;39;20046;-58
2021/05/15 02:58:40;;;;;;;21.20;13.85;;;;;;;8.90;100.00;100556.75;3601476;39;20066;-59
2021/05/15 03:01:06;;;;;;;22.65;14.60;;;;;;;8.85;100.00;100556.28;3603234;39;20070;-58
2021/05/15 03:03:32;;;;;;;21.10;14.18;;;;;;;8.81;100.00;100555.72;3601756;39;20120;-59
2021/05/15 03:05:59;;;;;;;25.33;15.02;;;;;;;8.60;100.00;100547.69;3601371;39;20171;-59
2021/05/15 03:08:25;;;;;;;25.80;15.20;;;;;;;8.52;100.00;100547.47;3603174;39;20299;-59
2021/05/15 03:10:51;;;;;;;28.30;16.40;;;;;;;8.35;100.00;100544.34;3605475;39;20042;-59
2021/05/15 03:13:17;;;;;;;25.00;14.43;;;;;;;8.50;100.00;100539.56;3601178;39;20044;-58
2021/05/15 03:15:43;;;;;;;24.02;15.18;;;;;;;8.54;100.00;100535.63;3603868;39;20043;-58
2021/05/15 03:18:09;;;;;;;25.95;15.45;;;;;;;8.57;100.00;100538.06;3604135;39;20055;-58
2021/05/15 03:20:35;;;;;;;27.02;15.25;;;;;;;8.57;100.00;100531.84;3602084;39;20047;-59
2021/05/15 03:23:01;;;;;;;25.10;15.35;;;;;;;8.54;100.00;100524.91;3600947;39;20063;-59
2021/05/15 03:25:27;;;;;;;21.25;13.95;;;;;;;8.67;100.00;100529.19;3601879;39;20055;-59
2021/05/15 03:27:53;;;;;;;21.42;14.27;;;;;;;8.72;100.00;100530.50;3603156;39;20043;-60
2021/05/15 03:30:20;;;;;;;21.88;14.60;;;;;;;8.79;100.00;100521.94;3602789;39;20271;-58
2021/05/15 03:32:46;;;;;;;23.58;14.70;;;;;;;8.62;100.00;100513.50;3598692;39;20702;-59
2021/05/15 03:35:13;;;;;;;23.77;14.07;;;;;;;8.70;100.00;100524.44;3597403;39;20062;-58
2021/05/15 03:38:23;;;;;;;21.40;14.60;;;;;;;8.58;100.00;100520.13;3617891;23;20064;-59
2021/05/15 03:40:50;;;;;;;22.13;13.75;;;;;;;8.46;100.00;100513.13;3534345;40;20425;-58
2021/05/15 03:43:16;;;;;;;27.45;15.60;;;;;;;8.48;100.00;100505.78;3529656;40;20051;-58
2021/05/15 03:45:42;;;;;;;25.08;15.05;;;;;;;8.58;100.00;100509.38;3528652;40;20313;-58
2021/05/15 03:48:08;;;;;;;23.20;14.63;;;;;;;8.62;100.00;100496.56;3527541;40;20441;-58
2021/05/15 03:50:34;;;;;;;25.15;13.93;;;;;;;8.53;100.00;100500.91;3528532;40;20066;-58
2021/05/15 03:53:00;;;;;;;27.58;15.43;;;;;;;8.46;100.00;100491.66;3525187;40;20067;-57
2021/05/15 03:55:27;;;;;;;22.58;14.65;;;;;;;8.63;100.00;100490.19;3525499;40;20464;-58
2021/05/15 03:57:53;;;;;;;24.48;14.48;;;;;;;8.47;100.00;100485.34;3528300;40;20099;-58
2021/05/15 04:00:20;;;;;;;21.00;13.80;;;;;;;8.53;100.00;100496.38;3523050;40;20050;-58
2021/05/15 04:02:48;;;;;;;22.00;13.88;;;;;;;8.48;100.00;100487.88;3521565;40;20051;-58
2021/05/15 04:05:14;;;;;;;26.95;14.45;;;;;;;8.42;100.00;100497.28;3531223;40;20051;-58
2021/05/15 04:07:40;;;;;;;24.42;15.02;;;;;;;8.37;100.00;100483.38;3530821;40;20054;-58
2021/05/15 04:10:07;;;;;;;22.80;14.43;;;;;;;8.31;100.00;100489.28;3534537;40;20058;-58
2021/05/15 04:12:35;;;;;;;28.25;15.65;;;;;;;8.24;100.00;100491.66;3533931;40;20046;-58
2021/05/15 04:15:06;;;;;;;28.23;16.55;;;;;;;8.30;100.00;100486.72;3534161;40;20059;-58
2021/05/15 04:17:32;;;;;;;27.38;16.27;;;;;;;8.15;100.00;100499.59;3534612;40;20067;-58
2021/05/15 04:19:59;;;;;;;25.30;15.15;;;;;;;8.19;100.00;100507.25;3534782;40;20063;-58
2021/05/15 04:22:25;;;;;;;25.35;14.55;;;;;;;8.30;100.00;100506.34;3532205;40;20063;-58
2021/05/15 04:24:51;;;;;;;25.77;15.18;;;;;;;8.21;100.00;100510.66;3534235;40;20117;-58
2021/05/15 04:27:17;;;;;;;23.27;15.35;;;;;;;8.27;100.00;100509.28;3534712;40;20043;-58
2021/05/15 04:29:45;;;;;;;25.17;15.80;;;;;;;8.20;100.00;100492.00;3533519;40;20453;-58
2021/05/15 04:32:12;;;;;;;27.02;16.60;;;;;;;8.35;100.00;100496.09;3533428;40;20061;-59
2021/05/15 04:34:38;;;;;;;24.73;14.73;;;;;;;8.47;100.00;100490.69;3533305;40;20089;-58
2021/05/15 04:37:04;;;;;;;27.27;16.65;;;;;;;8.45;100.00;100493.50;3531946;40;20057;-58
2021/05/15 04:39:33;;;;;;;24.70;14.15;;;;;;;8.49;100.00;100492.25;3538339;40;20074;-58
2021/05/15 04:42:00;;;;;;;23.13;15.00;;;;;;;8.56;100.00;100490.75;3543169;40;20440;-58
2021/05/15 04:44:26;;;;;;;31.05;15.85;;;;;;;8.27;100.00;100487.84;3542691;40;20050;-59
2021/05/15 04:46:52;;;;;;;28.00;15.65;;;;;;;8.38;100.00;100493.13;3543211;40;20066;-58
2021/05/15 04:49:19;;;;;;;27.98;14.55;;;;;;;8.54;100.00;100491.88;3545699;40;20060;-58
2021/05/15 04:51:45;;;;;;;26.83;14.10;;;;;;;8.47;100.00;100496.06;3541625;40;20045;-58
2021/05/15 04:54:12;;;;;;;24.10;15.40;;;;;;;8.36;100.00;100499.59;3543136;40;20047;-58
2021/05/15 04:56:38;;;;;;;26.45;15.25;;;;;;;8.43;100.00;100487.38;3543435;40;20046;-58
2021/05/15 04:59:04;;;;;;;23.38;14.32;;;;;;;8.39;100.00;100493.97;3547237;40;20053;-58
2021/05/15 05:01:30;;;;;;;27.20;15.93;;;;;;;8.38;100.00;100487.78;3545090;40;20082;-59
2021/05/15 05:03:56;;;;;;;28.13;15.88;;;;;;;8.42;100.00;100486.53;3545258;40;20058;-58
2021/05/15 05:06:23;;;;;;;23.83;15.35;;;;;;;8.44;100.00;100482.88;3544922;40;20091;-58
2021/05/15 05:08:49;;;;;;;34.03;16.45;;;;;;;8.54;100.00;100484.66;3546208;40;20406;-58
2021/05/15 05:11:15;;;;;;;31.77;17.02;;;;;;;8.62;100.00;100489.38;3545964;40;20136;-57
2021/05/15 05:13:41;;;;;;;28.63;16.48;;;;;;;8.59;100.00;100485.09;3545649;40;20409;-58
2021/05/15 05:16:07;;;;;;;23.80;15.23;;;;;;;8.59;100.00;100484.28;3545827;40;20184;-58
2021/05/15 05:18:33;;;;;;;24.50;14.93;;;;;;;8.64;100.00;100487.38;3546217;40;20405;-58
2021/05/15 05:21:01;;;;;;;29.75;16.02;;;;;;;8.62;100.00;100492.03;3546063;40;20088;-58
2021/05/15 05:23:28;;;;;;;24.80;15.55;;;;;;;8.48;100.00;100481.66;3545358;40;20073;-58
2021/05/15 05:25:54;;;;;;;30.17;16.40;;;;;;;8.57;100.00;100487.09;3545077;40;20313;-58
2021/05/15 05:28:25;;;;;;;26.90;16.60;;;;;;;8.63;100.00;100483.03;3546222;40;20054;-58
2021/05/15 05:30:51;;;;;;;30.40;17.17;;;;;;;8.43;100.00;100487.38;3544623;40;20130;-58
2021/05/15 05:33:17;;;;;;;32.42;16.25;;;;;;;8.33;100.00;100487.34;3544964;40;20408;-58
2021/05/15 05:35:43;;;;;;;25.52;14.90;;;;;;;8.36;100.00;100486.19;3544777;40;20132;-58
2021/05/15 05:38:10;;;;;;;29.42;17.40;;;;;;;8.21;100.00;100491.88;3543683;40;20372;-58
2021/05/15 05:40:37;;;;;;;29.15;18.08;;;;;;;8.20;100.00;100492.00;3546169;40;20340;-58
2021/05/15 05:43:03;;;;;;;32.00;17.60;;;;;;;8.21;100.00;100491.88;3545132;40;20428;-58
2021/05/15 05:45:29;;;;;;;31.90;17.42;;;;;;;8.27;100.00;100495.03;3547357;40;20054;-58
2021/05/15 05:47:55;;;;;;;33.85;17.95;;;;;;;8.17;100.00;100498.50;3546206;40;20046;-58
2021/05/15 05:50:21;;;;;;;33.90;18.30;;;;;;;8.19;100.00;100493.84;3545313;40;20317;-59
2021/05/15 05:52:47;;;;;;;35.70;17.83;;;;;;;8.25;100.00;100495.16;3545173;40;20415;-58
2021/05/15 05:55:13;;;;;;;36.92;19.63;;;;;;;8.18;100.00;100488.63;3542721;40;20294;-59
2021/05/15 05:57:40;;;;;;;36.67;19.48;;;;;;;8.27;100.00;100482.47;3545336;40;20054;-59
2021/05/15 06:00:08;;;;;;;31.20;17.63;;;;;;;8.40;100.00;100488.47;3544317;40;20050;-58
2021/05/15 06:02:33;;;;;;;32.53;18.05;;;;;;;8.41;100.00;100482.16;3545510;40;20062;-58
2021/05/15 06:04:59;;;;;;;36.13;19.70;;;;;;;8.46;100.00;100475.59;3546338;40;20137;-58
2021/05/15 06:07:25;;;;;;;38.80;19.80;;;;;;;8.40;100.00;100477.75;3545257;40;20970;-58
2021/05/15 06:09:52;;;;;;;32.78;18.13;;;;;;;8.45;100.00;100474.75;3543791;40;20049;-58
2021/05/15 06:12:18;;;;;;;39.08;18.23;;;;;;;8.65;100.00;100464.94;3546254;40;20045;-58
2021/05/15 06:14:45;;;;;;;35.70;19.67;;;;;;;8.64;100.00;100470.44;3544962;40;20057;-58
2021/05/15 06:17:11;;;;;;;30.90;18.50;;;;;;;8.51;100.00;100473.34;3545336;40;20066;-59
2021/05/15 06:19:37;;;;;;;35.85;19.15;;;;;;;8.55;100.00;100478.34;3545311;40;20403;-58
2021/05/15 06:22:03;;;;;;;36.33;20.10;;;;;;;8.62;100.00;100473.28;3546113;40;20042;-57
2021/05/15 06:24:29;;;;;;;36.85;20.17;;;;;;;8.65;100.00;100475.69;3545929;40;20197;-59
2021/05/15 06:26:55;;;;;;;39.30;20.23;;;;;;;8.62;100.00;100470.59;3546692;40;20297;-59
2021/05/15 06:29:21;;;;;;;35.10;18.42;;;;;;;8.61;100.00;100468.88;3545993;40;20846;-58
2021/05/15 06:31:48;;;;;;;38.42;20.85;;;;;;;8.53;100.00;100471.38;3543121;40;20042;-59
2021/05/15 06:34:13;;;;;;;41.80;21.00;;;;;;;8.72;100.00;100459.91;3544938;40;20401;-58
2021/05/15 06:36:39;;;;;;;38.03;20.27;;;;;;;8.77;100.00;100463.03;3545420;40;20129;-59
2021/05/15 06:39:06;;;;;;;42.92;20.92;;;;;;;8.85;100.00;100462.34;3545661;40;20061;-58
2021/05/15 06:41:32;;;;;;;40.28;19.83;;;;;;;9.05;100.00;100458.75;3544897;40;20054;-59
2021/05/15 06:43:58;;;;;;;40.78;20.65;;;;;;;9.20;100.00;100458.38;3543758;40;20061;-58
2021/05/15 06:46:24;;;;;;;39.78;20.55;;;;;;;9.28;100.00;100450.50;3545856;40;20058;-58
2021/05/15 06:48:50;;;;;;;36.63;19.33;;;;;;;9.56;100.00;100453.38;3546534;40;20125;-59
2021/05/15 06:51:16;;;;;;;34.90;18.73;;;;;;;9.49;100.00;100447.69;3543866;40;20049;-59
2021/05/15 06:53:43;;;;;;;36.92;19.83;;;;;;;9.49;100.00;100457.63;3545480;40;20062;-58
2021/05/15 06:56:08;;;;;;;37.40;20.80;;;;;;;9.44;100.00;100458.88;3546518;40;20073;-59
2021/05/15 06:58:34;;;;;;;39.65;21.27;;;;;;;9.41;100.00;100459.16;3545013;40;20062;-59
2021/05/15 07:01:01;;;;;;;41.75;21.42;;;;;;;9.35;100.00;100459.72;3545226;40;20070;-59
2021/05/15 07:03:28;;;;;;;43.92;22.42;;;;;;;9.44;100.00;100458.88;3545547;40;20050;-59
2021/05/15 07:05:55;;;;;;;42.97;23.27;;;;;;;9.43;100.00;100450.94;3545047;40;20058;-59
2021/05/15 07:08:22;;;;;;;40.90;23.50;;;;;;;9.59;100.00;100453.09;3545630;40;20073;-58
2021/05/15 07:10:47;;;;;;;45.33;23.38;;;;;;;9.72;100.00;100448.31;3544247;40;20054;-59
2021/05/15 07:13:14;;;;;;;44.28;22.95;;;;;;;9.58;100.00;100452.22;3544878;40;20061;-59
2021/05/15 07:15:40;;;;;;;54.42;25.70;;;;;;;9.66;100.00;100456.94;3544773;40;20475;-59
2021/05/15 07:18:06;;;;;;;45.25;22.63;;;;;;;9.50;100.00;100445.88;3544363;40;20394;-64
2021/05/15 07:20:32;;;;;;;45.42;23.98;;;;;;;9.76;100.00;100443.47;3544214;40;20077;-59
2021/05/15 07:22:59;;;;;;;45.22;24.77;;;;;;;9.98;100.00;100442.34;3544647;40;20426;-58
2021/05/15 07:25:25;;;;;;;47.28;26.73;;;;;;;10.04;100.00;100436.41;3544796;40;20054;-59
2021/05/15 07:27:51;;;;;;;46.85;25.08;;;;;;;10.14;100.00;100439.06;3544078;40;20062;-58
2021/05/15 07:30:18;;;;;;;50.58;28.40;;;;;;;10.07;100.00;100430.75;3544909;40;20066;-57
2021/05/15 07:32:45;;;;;;;57.20;27.45;;;;;;;10.06;100.00;100429.03;3544957;40;20049;-63
2021/05/15 07:35:12;;;;;;;50.53;28.23;;;;;;;9.97;100.00;100429.91;3545451;40;20110;-60
2021/05/15 07:37:38;;;;;;;47.88;26.50;;;;;;;10.33;100.00;100419.38;3545570;40;20286;-58
2021/05/15 07:40:06;;;;;;;52.10;28.58;;;;;;;10.46;100.00;100414.53;3545942;40;20388;-59
2021/05/15 07:45:24;;;;;;;40.65;24.50;;;;;;;10.82;100.00;100430.00;3626222;22;20044;-59
2021/05/15 07:47:50;;;;;;;43.15;25.08;;;;;;;10.56;100.00;100417.22;3594320;39;20056;-58
2021/05/15 07:50:16;;;;;;;44.55;26.13;;;;;;;10.98;100.00;100418.59;3602921;39;20028;-59
2021/05/15 07:52:42;;;;;;;48.15;26.92;;;;;;;10.73;100.00;100422.81;3605160;39;20050;-60
2021/05/15 07:55:10;;;;;;;46.97;25.70;;;;;;;10.63;100.00;100422.84;3603727;39;20376;-62
2021/05/15 07:57:36;;;;;;;44.05;25.65;;;;;;;10.93;100.00;100415.50;3605378;39;20083;-63
2021/05/15 08:00:03;;;;;;;41.10;23.80;;;;;;;11.02;100.00;100419.97;3602951;39;20051;-59
2021/05/15 08:02:29;;;;;;;43.78;26.40;;;;;;;10.93;100.00;100420.91;3603921;39;20074;-59
2021/05/15 08:04:56;;;;;;;39.05;23.58;;;;;;;11.25;100.00;100420.44;3605037;39;20406;-60
2021/05/15 08:07:22;;;;;;;36.88;23.23;;;;;;;11.19;100.00;100411.09;3604188;39;20059;-58
2021/05/15 08:09:48;;;;;;;38.92;24.05;;;;;;;11.29;100.00;100412.88;3605822;39;20039;-64
2021/05/15 08:12:16;;;;;;;41.10;24.50;;;;;;;10.96;100.00;100418.72;3604282;39;20177;-61
2021/05/15 08:14:42;;;;;;;41.75;24.50;;;;;;;10.83;100.00;100419.06;3602436;39;20055;-58
2021/05/15 08:17:08;;;;;;;38.17;22.95;;;;;;;10.74;100.00;100414.59;3604812;39;20080;-59
2021/05/15 08:19:34;;;;;;;46.05;25.85;;;;;;;10.44;100.00;100421.94;3605292;39;20097;-59
2021/05/15 08:22:00;;;;;;;47.90;25.63;;;;;;;10.34;100.00;100415.72;3604314;39;20067;-58
2021/05/15 08:24:26;;;;;;;37.92;23.77;;;;;;;10.33;100.00;100420.25;3603327;39;20444;-62
2021/05/15 08:26:52;;;;;;;38.38;23.30;;;;;;;10.28;100.00;100422.50;3603283;39;20052;-63
2021/05/15 08:29:21;;;;;;;37.35;23.40;;;;;;;10.37;100.00;100420.81;3601661;39;20057;-60
2021/05/15 08:31:47;;;;;;;43.22;25.40;;;;;;;10.40;100.00;100420.50;3601544;39;20149;-58
2021/05/15 08:34:13;;;;;;;35.88;23.13;;;;;;;10.32;100.00;100418.53;3600994;39;20490;-60
2021/05/15 08:36:39;;;;;;;39.33;24.92;;;;;;;10.57;100.00;100418.06;3601739;39;20051;-58
2021/05/15 08:39:06;;;;;;;34.97;23.38;;;;;;;10.79;100.00;100415.00;3601894;39;20044;-63
2021/05/15 08:41:33;;;;;;;40.42;24.20;;;;;;;10.95;100.00;100410.81;3605111;39;20083;-61
2021/05/15 08:44:00;;;;;;;36.35;22.90;;;;;;;10.71;100.00;100406.81;3604694;39;20040;-58
2021/05/15 08:46:29;;;;;;;37.95;22.92;;;;;;;10.70;100.00;100410.50;3603587;39;20040;-58
2021/05/15 08:48:58;;;;;;;38.05;24.70;;;;;;;10.68;100.00;100412.50;3597883;39;20051;-58
2021/05/15 08:51:25;;;;;;;36.92;24.05;;;;;;;10.33;100.00;100413.97;3601067;39;20047;-59
2021/05/15 08:53:52;;;;;;;39.08;25.42;;;;;;;10.44;100.00;100411.16;3604135;39;20051;-63
2021/05/15 08:56:18;;;;;;;37.30;23.17;;;;;;;10.62;100.00;100403.16;3605741;39;20072;-59
2021/05/15 08:58:44;;;;;;;37.53;26.13;;;;;;;10.38;100.00;100408.19;3606211;39;20051;-58
2021/05/15 09:01:13;;;;;;;40.15;24.92;;;;;;;10.35;100.00;100401.28;3603218;39;20055;-59
2021/05/15 09:03:41;;;;;;;36.53;22.77;;;;;;;10.57;100.00;100405.47;3604492;39;20051;-58
2021/05/15 09:06:07;;;;;;;36.80;24.77;;;;;;;10.84;100.00;100403.78;3602972;39;20052;-63
2021/05/15 09:08:33;;;;;;;35.38;23.63;;;;;;;10.71;100.00;100404.13;3603095;39;20054;-60
2021/05/15 09:10:59;;;;;;;36.38;25.35;;;;;;;10.81;100.00;100399.53;3605137;39;20390;-59
2021/05/15 09:13:30;;;;;;;38.53;24.40;;;;;;;10.90;100.00;100405.03;3597325;39;20053;-60
2021/05/15 09:15:58;;;;;;;33.78;23.33;;;;;;;11.19;100.00;100400.31;3604621;39;20047;-60
2021/05/15 09:18:26;;;;;;;36.83;23.42;;;;;;;11.63;100.00;100406.81;3599456;39;20052;-58
2021/05/15 09:20:55;;;;;;;34.15;22.85;;;;;;;11.64;100.00;100403.97;3605098;39;20044;-63
2021/05/15 09:23:23;;;;;;;32.58;21.88;;;;;;;12.24;100.00;100395.19;3603964;39;20336;-58
2021/05/15 09:26:00;;;;;;;31.73;21.55;;;;;;;12.18;100.00;100398.53;3605059;39;20295;-59
2021/05/15 09:28:39;;;;;;;32.47;21.88;;;;;;;12.37;100.00;100400.19;3604269;39;20048;-59
2021/05/15 09:31:24;;;;;;;29.80;21.42;;;;;;;12.12;100.00;100406.41;3602575;39;20039;-61
2021/05/15 09:33:52;;;;;;;29.50;21.27;;;;;;;11.97;100.00;100395.34;3604363;39;20054;-59
2021/05/15 09:36:22;;;;;;;32.83;21.95;;;;;;;11.84;100.00;100401.13;3603671;39;20109;-59
2021/05/15 09:39:00;;;;;;;30.42;20.77;;;;;;;11.65;100.00;100394.06;3604174;39;20379;-62
2021/05/15 09:41:35;;;;;;;36.30;21.02;;;;;;;11.65;100.00;100397.59;3603677;39;20070;-58
2021/05/15 09:44:01;;;;;;;27.58;19.48;;;;;;;11.71;100.00;100390.72;3604926;39;20050;-59
2021/05/15 09:46:28;;;;;;;30.20;20.50;;;;;;;12.54;100.00;100386.78;3606160;39;20044;-59
2021/05/15 09:48:55;;;;;;;27.50;19.50;;;;;;;12.86;100.00;100379.84;3607771;39;20055;-63
2021/05/15 09:51:22;;;;;;;25.35;18.90;;;;;;;13.26;100.00;100371.00;3606685;39;20279;-61
2021/05/15 09:53:48;;;;;;;23.88;17.90;;;;;;;13.15;100.00;100364.06;3606949;39;20059;-63
2021/05/15 09:56:26;;;;;;;28.80;19.65;;;;;;;13.67;100.00;100373.78;3605615;39;20097;-58
2021/05/15 09:58:52;;;;;;;25.73;19.65;;;;;;;13.49;100.00;100371.25;3606413;39;20162;-60
2021/05/15 10:01:21;;;;;;;27.23;17.25;;;;;;;12.93;100.00;100367.38;3604459;39;20039;-63
2021/05/15 10:03:48;;;;;;;25.33;17.45;;;;;;;13.14;100.00;100367.75;3606180;39;20051;-61
2021/05/15 10:06:17;;;;;;;26.02;18.60;;;;;;;13.04;100.00;100360.81;3606318;39;20047;-59
2021/05/15 10:08:44;;;;;;;22.17;16.10;;;;;;;13.53;100.00;100358.25;3605474;39;20152;-59
2021/05/15 10:11:11;;;;;;;24.52;17.20;;;;;;;14.25;100.00;100346.72;3604179;39;20047;-59
2021/05/15 10:13:38;;;;;;;22.25;15.82;;;;;;;14.32;100.00;100349.56;3603146;39;20169;-59
2021/05/15 10:16:05;;;;;;;21.42;15.85;;;;;;;14.40;100.00;100340.56;3604696;39;20378;-62
2021/05/15 10:18:32;;;;;;;25.92;17.08;;;;;;;14.07;100.00;100343.34;3605774;39;20044;-60
2021/05/15 10:20:59;;;;;;;23.60;16.38;;;;;;;13.42;100.00;100334.25;3603250;39;20407;-59
2021/05/15 10:23:28;;;;;;;24.73;17.05;;;;;;;14.10;100.00;100334.88;3599092;39;20048;-59
2021/05/15 10:26:05;;;;;;;24.90;17.77;;;;;;;13.97;100.00;100328.16;3601315;39;20046;-59
2021/05/15 10:28:32;;;;;;;23.02;15.95;;;;;;;14.18;100.00;100318.63;3600648;39;20432;-62
2021/05/15 10:31:03;;;;;;;23.25;17.48;;;;;;;13.87;100.00;100316.66;3599729;39;20060;-58
2021/05/15 10:33:31;;;;;;;25.60;17.48;;;;;;;13.62;100.00;100315.84;3602204;39;20124;-58
2021/05/15 10:35:57;;;;;;;24.90;17.35;;;;;;;14.00;100.00;100316.97;3601593;39;20130;-59
2021/05/15 10:38:31;;;;;;;22.23;16.50;;;;;;;13.72;100.00;100318.34;3599996;39;20140;-58
2021/05/15 10:41:10;;;;;;;24.77;17.00;;;;;;;13.47;100.00;100310.25;3602895;39;20050;-62
2021/05/15 10:43:37;;;;;;;26.65;17.30;;;;;;;13.86;100.00;100306.84;3603975;39;20139;-59
2021/05/15 10:46:25;;;;;;;25.25;17.98;;;;;;;13.45;100.00;100296.91;3603828;39;20040;-59
2021/05/15 10:49:08;;;;;;;25.60;16.80;;;;;;;14.07;100.00;100300.06;3605125;39;20055;-64
2021/05/15 10:51:42;;;;;;;25.70;17.38;;;;;;;14.04;100.00;100292.28;3606533;39;20106;-61
2021/05/15 10:54:09;;;;;;;25.60;17.75;;;;;;;14.89;100.00;100292.47;3605081;39;20050;-64
2021/05/15 10:56:37;;;;;;;22.50;16.42;;;;;;;14.78;100.00;100287.47;3605597;39;20047;-64
2021/05/15 10:59:08;;;;;;;25.17;16.88;;;;;;;14.93;100.00;100276.72;3604746;39;20043;-61
2021/05/15 11:01:52;;;;;;;25.77;17.48;;;;;;;15.45;100.00;100285.97;3605099;39;20299;-60
2021/05/15 11:04:20;;;;;;;25.10;17.58;;;;;;;15.95;100.00;100289.13;3604055;39;20063;-60
2021/05/15 11:07:00;;;;;;;23.00;16.27;;;;;;;16.34;100.00;100271.72;3607130;39;20050;-63
2021/05/15 11:09:27;;;;;;;25.65;16.77;;;;;;;16.15;100.00;100269.56;3605534;39;20053;-60